Time;durP1;ratioP1;P1;durP2;ratioP2;P2;SDS_P1;SDS_P2;PMS_P1;PMS_P2;Temp;Humidity;BMP_temperature;BMP_pressure;BME280_temperature;BME280_humidity;BME280_pressure;Samples;Min_cycle;Max_cycle;Signal;HPM_P1;HPM_P2
2022/10/06 00:01:08;;;;;;;33.50;16.88;;;;;;;17.24;93.33;101889.09;5032746;28;20454;-71
2022/10/06 00:03:37;;;;;;;33.65;16.90;;;;;;;17.24;93.26;101883.56;5032824;28;20045;-71
2022/10/06 00:06:07;;;;;;;37.85;18.13;;;;;;;17.18;93.45;101885.56;5032593;28;20517;-71
2022/10/06 00:08:37;;;;;;;30.05;17.00;;;;;;;17.11;94.06;101887.84;5032510;28;20529;-72
2022/10/06 00:11:05;;;;;;;33.28;16.85;;;;;;;17.08;94.88;101880.16;5032694;28;20060;-71
2022/10/06 00:13:34;;;;;;;30.83;16.42;;;;;;;17.02;94.21;101881.28;5031861;28;20509;-73
2022/10/06 00:16:07;;;;;;;38.30;18.20;;;;;;;17.04;94.71;101874.38;5032156;28;20052;-72
2022/10/06 00:18:35;;;;;;;32.05;16.60;;;;;;;17.08;95.30;101877.38;5031360;28;20068;-72
2022/10/06 00:21:03;;;;;;;33.45;17.83;;;;;;;17.17;94.32;101877.56;5032411;28;20053;-72
2022/10/06 00:23:31;;;;;;;33.03;18.58;;;;;;;17.24;94.20;101879.97;5032432;28;20514;-72
2022/10/06 00:25:59;;;;;;;32.45;18.52;;;;;;;17.21;94.68;101883.31;5032272;28;20052;-72
2022/10/06 00:28:27;;;;;;;31.35;17.52;;;;;;;17.19;95.22;101881.69;5032409;28;20061;-73
2022/10/06 00:31:00;;;;;;;36.75;18.38;;;;;;;17.31;93.76;101877.69;5032284;28;20057;-72
2022/10/06 00:33:28;;;;;;;32.67;17.05;;;;;;;17.21;94.09;101881.41;5047643;28;20053;-72
2022/10/06 00:35:57;;;;;;;29.90;17.45;;;;;;;17.18;94.67;101880.03;5032122;28;20045;-72
2022/10/06 00:38:26;;;;;;;29.52;16.92;;;;;;;17.15;94.78;101875.09;5030712;28;20056;-72
2022/10/06 00:40:55;;;;;;;32.50;17.05;;;;;;;17.18;94.29;101880.03;5032100;28;20053;-72
2022/10/06 00:43:48;;;;;;;32.38;17.25;;;;;;;17.11;94.70;101874.00;5030809;28;20041;-72
2022/10/06 00:46:51;;;;;;;28.15;17.13;;;;;;;17.12;95.00;101869.31;5032057;28;20052;-72
2022/10/06 00:49:31;;;;;;;30.02;16.75;;;;;;;17.21;94.17;101872.25;5030781;28;20046;-72
2022/10/06 00:52:07;;;;;;;32.65;17.85;;;;;;;17.24;94.02;101871.66;5043942;28;20046;-72
2022/10/06 00:54:35;;;;;;;29.77;16.75;;;;;;;17.16;94.65;101876.72;5024755;28;20037;-72
2022/10/06 00:57:04;;;;;;;33.65;17.98;;;;;;;17.12;94.30;101877.63;5032046;28;20042;-72
2022/10/06 00:59:34;;;;;;;29.33;15.80;;;;;;;17.14;95.31;101870.69;5031719;28;20496;-72
2022/10/06 01:02:09;;;;;;;30.80;17.27;;;;;;;17.06;95.00;101876.84;5031820;28;20050;-72
2022/10/06 01:04:43;;;;;;;32.33;16.00;;;;;;;17.07;95.13;101878.50;5027729;28;20054;-72
2022/10/06 01:07:11;;;;;;;30.23;17.02;;;;;;;17.11;95.07;101873.19;5030199;28;20038;-72
2022/10/06 01:09:40;;;;;;;28.58;15.55;;;;;;;17.02;95.75;101875.75;5031880;28;20503;-72
2022/10/06 01:12:08;;;;;;;33.38;16.80;;;;;;;17.01;95.34;101871.34;5031817;28;20045;-72
2022/10/06 01:14:38;;;;;;;29.48;16.00;;;;;;;17.06;95.36;101871.31;5027139;28;20042;-72
2022/10/06 01:17:21;;;;;;;27.13;16.33;;;;;;;17.09;95.38;101876.25;5024192;28;20061;-72
2022/10/06 01:19:58;;;;;;;28.17;15.20;;;;;;;17.04;94.91;101868.00;5046872;28;20049;-72
2022/10/06 01:22:34;;;;;;;31.00;15.43;;;;;;;16.94;95.30;101877.22;5030641;28;20048;-72
2022/10/06 01:25:05;;;;;;;27.80;16.15;;;;;;;16.78;96.25;101877.34;5032261;28;20037;-72
2022/10/06 01:27:36;;;;;;;31.25;16.60;;;;;;;16.70;96.48;101879.91;5035688;28;20052;-72
2022/10/06 01:30:07;;;;;;;29.23;16.25;;;;;;;16.78;96.61;101876.53;5050888;28;20488;-72
2022/10/06 01:32:37;;;;;;;28.70;15.95;;;;;;;16.82;95.97;101879.53;5050895;28;20053;-72
2022/10/06 01:35:07;;;;;;;28.45;16.60;;;;;;;16.76;96.33;101875.97;5031005;28;20590;-72
2022/10/06 01:37:35;;;;;;;28.17;16.67;;;;;;;16.73;96.52;101873.81;5043499;28;20052;-72
2022/10/06 01:40:04;;;;;;;30.73;16.92;;;;;;;16.80;96.24;101868.75;5034095;28;20049;-72
2022/10/06 01:42:35;;;;;;;33.03;18.23;;;;;;;16.77;95.98;101863.84;5047423;28;20489;-72
2022/10/06 01:45:04;;;;;;;29.77;16.02;;;;;;;16.73;96.94;101873.81;5048602;28;20038;-72
2022/10/06 01:47:35;;;;;;;30.65;16.08;;;;;;;16.72;97.22;101872.16;5030687;28;20050;-72
2022/10/06 01:50:05;;;;;;;27.88;16.10;;;;;;;16.72;96.96;101875.75;5047716;28;20033;-72
2022/10/06 01:52:35;;;;;;;28.50;16.40;;;;;;;16.72;97.53;101872.16;5035252;28;20049;-72
2022/10/06 01:55:03;;;;;;;25.55;16.20;;;;;;;16.73;98.05;101860.00;5032878;28;20042;-72
2022/10/06 01:57:38;;;;;;;30.10;17.42;;;;;;;16.77;97.25;101866.59;5030499;28;20060;-72
2022/10/06 02:00:08;;;;;;;31.75;16.45;;;;;;;16.82;97.18;101874.00;5029810;28;20050;-72
2022/10/06 02:02:39;;;;;;;32.13;17.40;;;;;;;16.85;97.10;101871.47;5035006;28;20041;-72
2022/10/06 02:05:08;;;;;;;30.73;17.25;;;;;;;16.93;96.83;101879.13;5034877;28;20400;-72
2022/10/06 02:07:39;;;;;;;26.55;15.32;;;;;;;16.99;97.07;101865.25;5033510;28;20041;-72
2022/10/06 02:10:08;;;;;;;28.45;16.85;;;;;;;17.00;96.31;101856.69;5047026;28;20484;-72
2022/10/06 02:12:36;;;;;;;29.83;18.15;;;;;;;17.04;95.83;101856.94;5031652;28;20531;-72
2022/10/06 02:15:05;;;;;;;33.88;17.52;;;;;;;16.96;96.26;101843.75;5034917;28;20056;-72
2022/10/06 02:17:33;;;;;;;27.67;16.08;;;;;;;16.96;96.73;101860.34;5034462;28;20045;-72
2022/10/06 02:20:01;;;;;;;32.70;17.38;;;;;;;16.85;96.79;101854.91;5030148;28;20049;-72
2022/10/06 02:22:28;;;;;;;30.13;16.25;;;;;;;16.89;97.13;101853.22;5033435;28;20037;-72
2022/10/06 02:24:56;;;;;;;29.30;16.95;;;;;;;16.86;96.85;101864.84;5034565;28;20033;-72
2022/10/06 02:27:24;;;;;;;32.92;16.95;;;;;;;17.00;95.55;101856.69;5049834;28;20048;-72
2022/10/06 02:29:54;;;;;;;32.13;17.23;;;;;;;17.01;95.18;101852.00;5033105;28;20053;-72
2022/10/06 02:32:22;;;;;;;29.83;15.98;;;;;;;17.01;95.12;101846.47;5049872;28;20050;-72
2022/10/06 02:34:50;;;;;;;29.80;16.30;;;;;;;17.02;94.81;101853.63;5049519;28;20072;-72
2022/10/06 02:37:18;;;;;;;29.67;16.17;;;;;;;16.81;96.49;101864.88;5028830;28;20408;-72
2022/10/06 02:39:46;;;;;;;29.85;17.00;;;;;;;16.79;96.61;101856.91;5030778;28;20048;-72
2022/10/06 02:42:14;;;;;;;31.15;17.27;;;;;;;16.74;96.87;101853.34;5034630;28;20042;-72
2022/10/06 02:44:42;;;;;;;27.67;16.13;;;;;;;16.72;97.23;101855.59;5030685;28;20057;-72
2022/10/06 02:47:13;;;;;;;33.00;17.33;;;;;;;16.68;97.32;101855.34;5049635;28;20403;-72
2022/10/06 02:49:41;;;;;;;35.10;18.58;;;;;;;16.61;97.18;101855.66;5034068;28;20041;-72
2022/10/06 02:52:10;;;;;;;31.35;17.20;;;;;;;16.56;97.54;101860.44;5033998;28;20041;-72
2022/10/06 02:54:38;;;;;;;33.65;19.25;;;;;;;16.53;97.55;101861.84;5034097;28;20041;-72
2022/10/06 02:57:05;;;;;;;30.30;16.98;;;;;;;16.52;98.04;101858.22;5033792;28;20052;-72
2022/10/06 02:59:34;;;;;;;30.05;17.02;;;;;;;16.45;97.85;101862.44;5029161;28;20416;-72
2022/10/06 03:02:03;;;;;;;32.38;17.13;;;;;;;16.49;98.10;101855.22;5027321;28;20064;-72
2022/10/06 03:04:31;;;;;;;33.20;18.58;;;;;;;16.32;98.63;101856.47;5024336;28;20045;-72
2022/10/06 03:06:59;;;;;;;33.25;17.30;;;;;;;16.34;98.83;101857.00;5032527;28;20053;-72
2022/10/06 03:09:32;;;;;;;33.47;18.15;;;;;;;16.38;98.22;101857.25;5033639;28;20037;-72
2022/10/06 03:12:00;;;;;;;35.08;17.02;;;;;;;16.36;98.17;101854.78;5032620;28;20049;-72
2022/10/06 03:14:38;;;;;;;30.52;17.42;;;;;;;16.22;98.32;101860.13;5045454;28;20049;-72
2022/10/06 03:17:08;;;;;;;31.42;16.15;;;;;;;16.25;98.73;101858.72;5032341;28;20049;-72
2022/10/06 03:19:41;;;;;;;30.05;16.52;;;;;;;16.28;97.85;101862.84;5048794;28;20049;-72
2022/10/06 03:22:09;;;;;;;33.33;17.33;;;;;;;16.23;98.02;101867.28;5033499;28;20041;-72
2022/10/06 03:24:43;;;;;;;33.35;16.95;;;;;;;16.32;97.67;101867.50;5013255;28;20053;-72
2022/10/06 03:27:11;;;;;;;30.27;16.52;;;;;;;16.26;98.33;101860.38;5039835;28;20042;-72
2022/10/06 03:29:39;;;;;;;34.30;17.45;;;;;;;16.23;98.59;101859.00;5032072;28;20388;-72
2022/10/06 03:32:07;;;;;;;34.58;16.45;;;;;;;16.20;98.66;101856.00;5033266;28;20506;-73
2022/10/06 03:34:36;;;;;;;32.20;17.55;;;;;;;16.19;98.87;101857.13;5030486;28;20531;-72
2022/10/06 03:37:07;;;;;;;36.47;17.55;;;;;;;16.20;99.01;101856.00;5028609;28;20049;-73
2022/10/06 03:39:35;;;;;;;33.03;17.35;;;;;;;16.18;99.56;101853.50;5026741;28;20048;-72
2022/10/06 03:42:03;;;;;;;32.95;17.02;;;;;;;16.14;99.29;101852.47;5033241;28;20037;-72
2022/10/06 03:44:33;;;;;;;29.60;17.35;;;;;;;16.16;99.41;101861.28;5032751;28;20052;-72
2022/10/06 03:47:02;;;;;;;33.85;17.98;;;;;;;16.11;99.58;101856.63;5045870;28;20057;-73
2022/10/06 03:49:31;;;;;;;33.17;17.23;;;;;;;16.17;99.11;101854.63;5041038;28;20045;-72
2022/10/06 03:51:59;;;;;;;29.92;16.65;;;;;;;16.16;99.19;101863.19;5048333;28;20045;-72
2022/10/06 03:54:32;;;;;;;34.53;18.33;;;;;;;16.14;99.10;101860.75;5031649;28;20045;-72
2022/10/06 03:57:00;;;;;;;32.90;17.85;;;;;;;16.10;99.21;101860.50;5044624;28;20397;-72
2022/10/06 03:59:32;;;;;;;29.85;16.48;;;;;;;15.99;99.29;101858.91;5021863;28;20057;-72
2022/10/06 04:02:04;;;;;;;33.50;17.30;;;;;;;15.92;99.44;101856.44;5048212;28;20041;-72
2022/10/06 04:04:36;;;;;;;31.60;15.48;;;;;;;15.85;100.00;101856.72;5031544;28;20526;-72
2022/10/06 04:07:07;;;;;;;31.52;16.83;;;;;;;15.90;100.00;101857.81;5031393;28;20048;-72
2022/10/06 04:09:35;;;;;;;32.92;18.13;;;;;;;15.93;100.00;101854.53;5031458;28;20037;-72
2022/10/06 04:12:03;;;;;;;34.55;17.50;;;;;;;16.02;99.40;101852.78;5032822;28;20042;-72
2022/10/06 04:14:34;;;;;;;32.17;17.05;;;;;;;15.97;99.28;101864.72;5031161;28;20041;-72
2022/10/06 04:17:03;;;;;;;32.47;16.65;;;;;;;16.01;98.77;101864.97;5047957;28;20407;-72
2022/10/06 04:19:34;;;;;;;35.58;18.15;;;;;;;16.01;98.22;101867.72;5027825;28;20049;-72
2022/10/06 04:22:02;;;;;;;30.02;16.02;;;;;;;15.91;98.79;101867.75;5022076;28;20049;-72
2022/10/06 04:24:31;;;;;;;33.15;17.60;;;;;;;15.94;98.41;101864.44;5031376;28;20052;-72
2022/10/06 04:27:26;;;;;;;31.20;16.23;;;;;;;15.93;98.40;101876.63;5031069;28;20053;-73
2022/10/06 04:29:55;;;;;;;30.63;16.35;;;;;;;15.93;98.39;101876.63;5031037;28;20042;-73
2022/10/06 04:32:23;;;;;;;32.58;16.42;;;;;;;15.89;98.55;101881.00;5027896;28;20038;-72
2022/10/06 04:34:51;;;;;;;30.98;17.15;;;;;;;15.79;98.22;101868.09;5025767;28;20404;-73
2022/10/06 04:37:19;;;;;;;36.88;17.52;;;;;;;15.71;98.82;101877.78;5038038;28;20044;-73
2022/10/06 04:39:48;;;;;;;31.85;16.70;;;;;;;15.76;98.79;101871.41;5031053;28;20136;-72
2022/10/06 04:42:17;;;;;;;29.70;16.08;;;;;;;15.74;99.17;101881.91;5027575;28;20042;-72
2022/10/06 04:44:45;;;;;;;31.55;16.52;;;;;;;15.74;99.10;101879.16;5024796;28;20220;-76
2022/10/06 04:47:13;;;;;;;31.27;17.15;;;;;;;15.89;97.63;101879.06;5027484;28;20050;-77
2022/10/06 04:49:41;;;;;;;31.13;16.45;;;;;;;15.87;98.04;101886.00;5041655;28;20041;-75
2022/10/06 04:52:09;;;;;;;35.10;16.33;;;;;;;15.77;97.85;101887.69;5027602;28;20042;-76
2022/10/06 04:54:40;;;;;;;32.47;17.92;;;;;;;15.78;98.18;101888.53;5040711;28;20045;-76
2022/10/06 04:57:08;;;;;;;28.92;15.80;;;;;;;15.72;98.05;101894.06;5027427;28;20057;-76
2022/10/06 05:02:24;;;;;;;34.20;16.80;;;;;;;15.76;97.60;101894.31;5035060;28;20054;-76
2022/10/06 05:04:56;;;;;;;33.40;15.73;;;;;;;15.76;97.60;101894.31;5045077;28;20054;-77
2022/10/06 05:07:24;;;;;;;29.65;15.35;;;;;;;15.72;97.86;101890.47;5047601;28;20049;-78
2022/10/06 05:09:56;;;;;;;28.33;16.08;;;;;;;15.63;98.44;101900.47;5034732;28;20037;-76
2022/10/06 05:12:24;;;;;;;28.35;14.95;;;;;;;15.63;98.36;101898.50;5050878;28;20510;-76
2022/10/06 05:14:52;;;;;;;29.48;16.48;;;;;;;15.49;98.69;101901.03;5035691;28;20042;-75
2022/10/06 05:17:19;;;;;;;30.25;15.13;;;;;;;15.58;98.61;101907.63;5032461;28;20052;-75
2022/10/06 05:19:47;;;;;;;31.05;15.77;;;;;;;15.57;98.35;101911.50;5021905;28;20052;-74
2022/10/06 05:22:16;;;;;;;31.13;15.55;;;;;;;15.58;98.57;101906.81;5035111;28;20049;-76
2022/10/06 05:24:45;;;;;;;30.35;15.85;;;;;;;15.57;98.79;101903.22;5050779;28;20057;-75
2022/10/06 05:27:12;;;;;;;32.28;15.13;;;;;;;15.55;97.46;101913.72;5030888;28;20049;-76
2022/10/06 05:29:40;;;;;;;30.40;16.38;;;;;;;15.51;98.08;101912.63;5031503;28;20037;-76
2022/10/06 05:32:09;;;;;;;31.08;16.05;;;;;;;15.49;98.37;101914.03;5050874;28;20049;-76
2022/10/06 05:34:37;;;;;;;32.85;17.35;;;;;;;15.51;98.56;101915.41;5032738;28;20054;-76
2022/10/06 05:37:06;;;;;;;28.95;16.15;;;;;;;15.49;98.67;101923.09;5032345;28;20391;-76
2022/10/06 05:39:34;;;;;;;28.00;15.13;;;;;;;15.50;98.60;101915.66;5049548;28;20052;-76
2022/10/06 05:42:02;;;;;;;29.23;15.70;;;;;;;15.46;98.68;101920.94;5014428;28;20042;-72
2022/10/06 05:44:31;;;;;;;35.25;15.82;;;;;;;15.48;97.51;101915.94;5044504;28;20038;-72
2022/10/06 05:47:04;;;;;;;32.05;15.77;;;;;;;15.29;98.52;101930.34;5030644;28;20042;-72
2022/10/06 05:49:32;;;;;;;28.50;15.80;;;;;;;15.37;97.95;101923.44;5027221;28;20045;-72
2022/10/06 05:52:02;;;;;;;32.00;16.92;;;;;;;15.39;98.09;101932.25;5033926;28;20040;-73
2022/10/06 05:54:33;;;;;;;29.30;16.08;;;;;;;15.46;97.27;101937.47;5035268;28;20046;-72
2022/10/06 05:57:01;;;;;;;31.70;16.25;;;;;;;15.50;97.18;101933.03;5035232;28;20050;-72
2022/10/06 05:59:31;;;;;;;28.75;15.10;;;;;;;15.62;97.20;101934.66;5030476;28;20049;-73
2022/10/06 06:02:00;;;;;;;29.00;15.32;;;;;;;15.81;96.21;101941.22;5047784;28;20053;-72
2022/10/06 06:04:38;;;;;;;34.15;17.17;;;;;;;15.87;96.37;101936.50;5033673;28;20056;-72
2022/10/06 06:07:08;;;;;;;32.78;16.77;;;;;;;15.91;96.24;101934.00;5034725;28;20053;-72
2022/10/06 06:09:37;;;;;;;30.50;16.25;;;;;;;15.96;95.63;101939.53;5036729;28;20508;-72
2022/10/06 06:12:05;;;;;;;36.28;17.92;;;;;;;16.23;94.35;101941.84;5046713;28;20065;-72
2022/10/06 06:17:52;;;;;;;33.17;16.65;;;;;;;16.02;95.71;101940.34;5029910;28;20038;-73
2022/10/06 06:20:20;;;;;;;35.13;16.50;;;;;;;16.33;93.57;101943.72;5042058;28;20045;-73
2022/10/06 06:22:52;;;;;;;32.17;16.02;;;;;;;16.41;92.75;101935.97;5045217;28;20038;-73
2022/10/06 06:25:23;;;;;;;31.33;16.13;;;;;;;16.38;92.09;101948.41;5050526;28;20048;-72
2022/10/06 06:27:54;;;;;;;33.55;16.42;;;;;;;16.46;92.70;101955.25;5048776;28;20046;-72
2022/10/06 06:30:23;;;;;;;31.10;15.80;;;;;;;16.47;92.47;101954.16;5033286;28;20045;-72
2022/10/06 06:32:56;;;;;;;31.50;15.85;;;;;;;16.49;92.83;101961.06;5033202;28;20041;-73
2022/10/06 06:35:24;;;;;;;29.55;16.65;;;;;;;16.79;91.91;101961.09;5034349;28;20049;-73
2022/10/06 06:37:52;;;;;;;31.73;16.60;;;;;;;16.81;91.95;101958.88;5034075;28;20400;-72
2022/10/06 06:40:21;;;;;;;29.98;15.15;;;;;;;17.10;90.64;101968.34;5029710;28;20408;-73
2022/10/06 06:42:48;;;;;;;31.88;16.95;;;;;;;17.24;90.62;101966.56;5026674;28;20049;-72
2022/10/06 06:45:52;;;;;;;30.50;16.08;;;;;;;17.27;89.89;101970.69;5024537;28;20049;-73
2022/10/06 06:48:34;;;;;;;30.42;16.38;;;;;;;17.45;89.05;101972.69;5033886;28;20046;-72
2022/10/06 06:51:06;;;;;;;30.38;15.80;;;;;;;17.46;89.20;101977.09;5032930;28;20527;-72
2022/10/06 06:53:34;;;;;;;30.70;15.13;;;;;;;17.59;88.65;101977.53;5046036;28;20492;-72
2022/10/06 06:56:03;;;;;;;34.60;16.80;;;;;;;17.63;88.94;101977.75;5039597;28;20046;-73
2022/10/06 06:58:36;;;;;;;28.10;15.38;;;;;;;17.84;87.94;101979.19;5032236;28;20055;-72
2022/10/06 07:01:12;;;;;;;28.48;15.30;;;;;;;17.79;88.29;101982.00;5032468;28;20046;-73
2022/10/06 07:03:52;;;;;;;31.77;17.00;;;;;;;17.75;88.90;101985.66;5032327;28;20038;-72
2022/10/06 07:06:29;;;;;;;36.35;17.65;;;;;;;17.91;87.81;101989.91;5032272;28;20069;-72
2022/10/06 07:08:59;;;;;;;30.60;15.90;;;;;;;18.21;87.02;101990.66;5032320;28;20404;-73
2022/10/06 07:11:31;;;;;;;29.88;16.88;;;;;;;18.39;86.47;101993.75;5045248;28;20050;-72
2022/10/06 07:14:06;;;;;;;29.98;16.63;;;;;;;18.38;85.83;102004.00;5026681;28;20056;-72
2022/10/06 07:25:05;;;;;;;33.15;16.63;;;;;;;19.39;83.39;102002.16;5031806;28;20045;-73
2022/10/06 07:27:41;;;;;;;33.42;17.73;;;;;;;19.37;83.04;102004.41;5032264;28;20053;-73
2022/10/06 07:30:17;;;;;;;27.17;15.77;;;;;;;19.71;82.24;102014.34;5032171;28;20037;-73
2022/10/06 07:32:50;;;;;;;29.27;15.52;;;;;;;20.07;80.89;102013.66;5029892;28;20481;-72
2022/10/06 07:35:20;;;;;;;27.65;15.40;;;;;;;20.11;78.77;102009.13;5044975;28;20389;-73
2022/10/06 07:37:51;;;;;;;27.52;15.55;;;;;;;20.32;79.84;102014.22;5026206;28;20216;-73
2022/10/06 07:40:22;;;;;;;27.65;16.20;;;;;;;20.36;78.75;102017.19;5031933;28;20049;-72
2022/10/06 07:42:50;;;;;;;26.65;15.15;;;;;;;20.47;77.40;102015.03;5045105;28;20042;-73
2022/10/06 07:45:38;;;;;;;26.73;16.27;;;;;;;20.79;76.34;102018.72;5036401;28;20052;-73
2022/10/06 07:48:18;;;;;;;26.13;15.30;;;;;;;20.75;76.15;102014.91;5031574;28;20487;-72
2022/10/06 07:50:52;;;;;;;32.00;15.68;;;;;;;21.03;74.87;102012.91;5031965;28;20291;-73
2022/10/06 07:53:26;;;;;;;27.13;15.35;;;;;;;21.23;73.67;102021.00;5031573;28;20072;-73
2022/10/06 07:56:06;;;;;;;31.58;16.92;;;;;;;21.05;74.41;102027.31;5031497;28;20053;-73
2022/10/06 07:58:39;;;;;;;30.98;16.10;;;;;;;21.35;73.99;102021.25;5044523;28;20392;-73
2022/10/06 08:01:10;;;;;;;29.92;15.80;;;;;;;21.45;72.55;102026.56;5023273;28;20392;-73
2022/10/06 08:03:39;;;;;;;25.23;13.25;;;;;;;21.45;72.09;102029.34;5031521;28;20057;-73
2022/10/06 08:06:12;;;;;;;28.63;15.73;;;;;;;21.64;71.86;102028.28;5032450;28;20049;-73
2022/10/06 08:08:42;;;;;;;30.83;16.20;;;;;;;21.63;72.08;102029.41;5032615;28;20068;-73
2022/10/06 08:11:11;;;;;;;28.27;15.65;;;;;;;21.74;71.19;102041.97;5032246;28;20408;-73
2022/10/06 08:13:46;;;;;;;29.65;16.05;;;;;;;21.77;71.37;102040.50;5032398;28;20412;-73
2022/10/06 08:16:23;;;;;;;26.42;15.48;;;;;;;21.99;71.59;102038.75;5032127;28;20052;-72
2022/10/06 08:18:52;;;;;;;24.40;14.50;;;;;;;22.31;68.53;102041.47;5031167;28;20049;-73
2022/10/06 08:21:28;;;;;;;31.60;15.90;;;;;;;22.49;68.56;102043.13;5032273;28;20419;-73
2022/10/06 08:23:57;;;;;;;30.33;17.05;;;;;;;22.65;68.36;102045.47;5032348;28;20056;-73
2022/10/06 08:26:27;;;;;;;28.60;16.17;;;;;;;22.90;66.45;102041.03;5032016;28;20037;-73
2022/10/06 08:29:04;;;;;;;27.42;15.65;;;;;;;22.94;65.64;102038.41;5032223;28;20053;-73
2022/10/06 08:31:32;;;;;;;25.83;15.25;;;;;;;23.12;65.51;102041.19;5032197;28;20061;-73
2022/10/06 08:34:00;;;;;;;27.95;16.77;;;;;;;23.00;64.16;102045.47;5031637;28;20046;-73
2022/10/06 08:36:28;;;;;;;25.80;14.82;;;;;;;23.06;64.51;102046.94;5030026;28;20044;-72
2022/10/06 08:39:00;;;;;;;27.02;15.10;;;;;;;23.16;63.87;102050.53;5031946;28;20480;-73
2022/10/06 08:41:31;;;;;;;24.42;13.77;;;;;;;23.15;63.19;102051.69;5031850;28;20045;-73
2022/10/06 08:44:00;;;;;;;26.13;15.63;;;;;;;23.28;63.03;102055.44;5032124;28;20041;-73
2022/10/06 08:46:39;;;;;;;25.88;16.02;;;;;;;23.44;61.99;102055.75;5030463;28;20053;-73
2022/10/06 08:49:16;;;;;;;23.52;15.45;;;;;;;23.65;61.03;102057.84;5030716;28;20400;-72
2022/10/06 08:52:08;;;;;;;28.85;15.60;;;;;;;23.49;62.10;102059.22;5031702;28;20050;-72
2022/10/06 08:54:44;;;;;;;25.33;15.13;;;;;;;22.78;62.57;102054.84;5031931;28;20041;-72
2022/10/06 08:58:02;;;;;;;24.17;15.10;;;;;;;23.06;61.98;102057.28;5032021;28;20064;-72
2022/10/06 09:00:35;;;;;;;26.80;15.20;;;;;;;23.56;62.69;102055.88;5008904;28;20054;-71
2022/10/06 09:03:04;;;;;;;24.45;15.18;;;;;;;23.53;60.25;102056.56;5051261;28;20045;-72
2022/10/06 09:05:33;;;;;;;24.02;15.18;;;;;;;23.56;60.03;102050.28;5042772;28;20044;-72
2022/10/06 09:08:32;;;;;;;22.10;14.45;;;;;;;23.92;59.98;102058.53;5031977;28;20496;-73
2022/10/06 09:11:20;;;;;;;27.13;15.75;;;;;;;23.88;59.44;102056.44;5031513;28;20050;-72
2022/10/06 09:14:04;;;;;;;26.27;15.27;;;;;;;24.08;58.82;102053.22;5031519;28;20484;-72
2022/10/06 09:16:37;;;;;;;26.17;14.77;;;;;;;24.38;58.09;102048.44;5031528;28;20068;-73
2022/10/06 09:19:20;;;;;;;25.10;14.95;;;;;;;24.56;57.68;102051.09;5031757;28;20052;-72
2022/10/06 09:21:47;;;;;;;26.52;15.07;;;;;;;24.73;57.43;102052.13;5031553;28;20052;-72
2022/10/06 09:24:24;;;;;;;32.08;18.10;;;;;;;25.03;57.52;102052.06;5031396;28;20049;-72
2022/10/06 09:26:56;;;;;;;29.45;17.73;;;;;;;24.94;57.30;102055.75;5031443;28;20041;-71
2022/10/06 09:29:26;;;;;;;27.13;16.15;;;;;;;24.85;56.69;102066.22;5031374;28;20061;-71
2022/10/06 09:31:54;;;;;;;28.08;16.08;;;;;;;24.92;56.59;102062.88;5031393;28;20480;-71
2022/10/06 09:34:25;;;;;;;29.25;17.35;;;;;;;24.67;56.40;102063.53;5031391;28;20053;-71
2022/10/06 09:37:13;;;;;;;26.15;15.98;;;;;;;24.80;57.59;102055.19;5031407;28;20042;-71
2022/10/06 09:39:49;;;;;;;27.92;17.02;;;;;;;24.45;57.28;102063.84;5031397;28;20045;-71
2022/10/06 09:42:20;;;;;;;26.85;16.65;;;;;;;24.49;58.50;102057.22;5031551;28;20046;-73
2022/10/06 09:44:59;;;;;;;25.85;16.10;;;;;;;24.25;57.51;102058.72;5031506;28;20046;-72
2022/10/06 09:47:44;;;;;;;25.98;16.80;;;;;;;24.16;59.29;102066.34;5033939;28;20072;-72
2022/10/06 09:50:24;;;;;;;30.70;16.90;;;;;;;24.53;57.66;102060.16;5034969;28;20503;-72
2022/10/06 09:53:02;;;;;;;27.05;16.83;;;;;;;24.65;57.88;102063.06;5035062;28;20060;-72
2022/10/06 09:55:43;;;;;;;27.45;16.38;;;;;;;24.98;55.79;102061.50;5033610;28;20049;-72
2022/10/06 09:58:17;;;;;;;30.65;17.63;;;;;;;24.25;57.99;102057.91;5034410;28;20049;-72
2022/10/06 10:01:00;;;;;;;31.17;16.80;;;;;;;24.38;56.45;102062.41;5030333;28;20114;-72
2022/10/06 10:03:51;;;;;;;26.25;17.88;;;;;;;25.06;55.27;102055.00;5030420;28;20383;-72
2022/10/06 10:06:40;;;;;;;26.80;16.65;;;;;;;25.04;56.97;102054.53;5034574;28;20049;-72
2022/10/06 10:09:20;;;;;;;27.40;16.20;;;;;;;25.24;55.28;102052.00;5034454;28;20076;-72
2022/10/06 10:15:02;;;;;;;30.58;18.08;;;;;;;24.44;56.93;102049.06;5034519;28;20038;-72
2022/10/06 10:17:36;;;;;;;29.35;17.55;;;;;;;24.24;57.38;102047.88;5034200;28;20412;-70
2022/10/06 10:20:49;;;;;;;32.70;19.13;;;;;;;24.42;57.69;102040.19;5034424;28;20369;-71
2022/10/06 10:23:22;;;;;;;31.25;18.15;;;;;;;24.19;58.19;102042.47;5006610;28;20060;-72
2022/10/06 10:26:28;;;;;;;31.05;18.55;;;;;;;24.23;59.00;102037.81;5032886;28;20049;-71
2022/10/06 10:29:02;;;;;;;35.45;18.30;;;;;;;25.19;53.82;102030.66;5034194;28;20056;-72
2022/10/06 10:32:02;;;;;;;31.75;19.25;;;;;;;24.50;57.23;102042.09;5034154;28;20508;-72
2022/10/06 10:34:58;;;;;;;31.00;17.58;;;;;;;25.11;56.23;102030.75;5034086;28;20045;-72
2022/10/06 10:37:39;;;;;;;30.00;17.67;;;;;;;25.34;54.47;102031.13;5033920;28;20068;-72
2022/10/06 10:40:28;;;;;;;32.10;18.00;;;;;;;25.56;53.55;102029.13;5033969;28;20041;-72
2022/10/06 10:43:09;;;;;;;29.58;18.27;;;;;;;26.08;52.60;102033.19;5033963;28;20048;-72
2022/10/06 10:45:50;;;;;;;29.15;18.85;;;;;;;26.27;51.08;102024.19;5033832;28;20488;-72
2022/10/06 10:48:26;;;;;;;35.42;19.13;;;;;;;25.76;54.07;102027.38;5033825;28;20056;-72
2022/10/06 10:51:01;;;;;;;31.27;17.73;;;;;;;25.75;52.60;102026.53;5034000;28;20049;-72
2022/10/06 10:54:02;;;;;;;31.90;18.65;;;;;;;26.06;50.69;102023.50;5033607;28;20037;-72
2022/10/06 10:56:32;;;;;;;27.73;17.63;;;;;;;25.92;52.93;102024.69;5048541;28;20507;-72
2022/10/06 10:59:18;;;;;;;28.75;17.77;;;;;;;26.72;50.66;102032.72;5032394;28;20084;-72
2022/10/06 11:01:56;;;;;;;28.02;17.73;;;;;;;26.91;49.95;102031.22;5033327;28;20041;-72
2022/10/06 11:04:25;;;;;;;29.30;17.77;;;;;;;26.64;49.79;102034.50;5033567;28;20049;-72
2022/10/06 11:07:02;;;;;;;28.00;17.58;;;;;;;26.51;52.40;102028.13;5033528;28;20072;-72
2022/10/06 11:09:44;;;;;;;30.65;19.42;;;;;;;25.58;52.31;102032.38;5033456;28;20056;-72
2022/10/06 11:12:32;;;;;;;32.22;19.08;;;;;;;25.74;54.98;102030.53;5033438;28;20045;-72
2022/10/06 11:15:24;;;;;;;35.38;19.83;;;;;;;26.13;52.46;102018.09;5028763;28;20045;-72
2022/10/06 11:17:56;;;;;;;33.75;19.98;;;;;;;25.76;52.27;102021.78;5031165;28;20041;-72
2022/10/06 11:20:51;;;;;;;29.50;18.55;;;;;;;25.67;54.23;102019.06;5033361;28;20053;-72
2022/10/06 11:23:51;;;;;;;30.73;19.77;;;;;;;25.67;52.63;102019.06;5028774;28;20053;-72
2022/10/06 11:26:47;;;;;;;33.10;18.90;;;;;;;26.52;51.42;102012.91;5031164;28;20065;-73
2022/10/06 11:29:43;;;;;;;31.75;18.10;;;;;;;26.71;49.33;102014.25;5033472;28;20400;-72
2022/10/06 11:32:35;;;;;;;31.20;18.08;;;;;;;26.71;49.95;102011.44;5033537;28;20045;-72
2022/10/06 11:35:20;;;;;;;36.00;19.85;;;;;;;26.53;50.20;102014.53;5033847;28;20049;-73
2022/10/06 11:37:58;;;;;;;32.72;19.50;;;;;;;26.60;51.02;102004.69;5043772;28;20049;-73
2022/10/06 11:41:01;;;;;;;32.15;19.17;;;;;;;27.16;47.78;101992.63;5046535;28;20495;-73
2022/10/06 11:43:59;;;;;;;30.88;17.60;;;;;;;27.28;47.96;101997.34;5032793;28;20419;-73
2022/10/06 11:46:42;;;;;;;31.25;19.35;;;;;;;27.43;46.98;101997.72;5032595;28;20045;-73
2022/10/06 11:49:31;;;;;;;28.80;18.25;;;;;;;27.40;46.61;101990.00;5032761;28;20064;-73
2022/10/06 11:52:05;;;;;;;29.55;19.27;;;;;;;27.35;45.76;101994.72;5032458;28;20476;-73
2022/10/06 11:54:55;;;;;;;26.63;16.98;;;;;;;27.71;45.43;101999.63;5032679;28;20057;-72
2022/10/06 11:57:23;;;;;;;30.73;16.88;;;;;;;27.65;46.30;101987.84;5032331;28;20060;-72